Phuket, Thailand

11:00 PM ICT on July 29, 2016 (GMT +0700)
Phuket International | | Change Station

Elev 30 ft 8.11 °N, 98.32 °E | Updated 30 minutes ago

Mostly Cloudy
Mostly Cloudy
79 °F
Feels Like 79 °F
N
1
Wind Variable Wind from Variable

Today
High -- | Low -- °F
--% Chance of Precip.
Yesterday
High -- | Low -- °F
Precip. -- in
Pressure 29.86 in
Visibility 5.0 miles
Clouds Scattered Clouds 1800 ft
Mostly Cloudy 10000 ft
Dew Point 75 °F
Humidity 89%
Rainfall 0.00 in
Snow Depth Not available.
6:18 AM 6:47 PM
Waning Crescent, 21% visible
METAR VTSP 291530Z VRB01KT 8000 SCT018 BKN100 26/24 Q1011 A2988 NOSIG
Pressure 29.86 in
Visibility 5.0 miles
Clouds Scattered Clouds 1800 ft
Mostly Cloudy 10000 ft
Dew Point 75 °F
Humidity 89%
Rainfall 0.00 in
Snow Depth Not available.
6:18 AM 6:47 PM
Waning Crescent, 21% visible
METAR VTSP 291530Z VRB01KT 8000 SCT018 BKN100 26/24 Q1011 A2988 NOSIG

10-Day Weather Forecast

No radar image for this location.
×

Almanac

Astronomy

Jul. 29, 2016 Rise Set
Actual Time
Civil Twilight
Nautical Twilight
Astronomical Twilight
Moon
Length of Visible Light
Length of Day
Tomorrow will be .
, % of the Moon is Illuminated

Today's Extremes

Country Highs Country Lows

Community

WunderPhotos

Upload Photos

1,928,348 photos uploaded!

WunderBlog® & News

Nearby

Air Quality

  Air Quality AQ Index Pollutant
Not available.

Snow Depth

Station Depth Elevation

Earthquake Activity

City Distance Mag. Time & Date
Minimum magnitude displayed is 2.5.

Coastal Water Temperatures

Place Temperature

Stations

Nearby Weather Stations

Station Location Temp. Windchill Dew Point Humidity Wind Precip. Elev Updated Type